メインページ
METAR-TAF:

METAR-TAF

空港 :

Coatesville, ペンシルバニア州, アメリカ合衆国

緯度: 39-58-44N, 経度: 075-51-56W, 海抜: 201m

現時点の気象観測

当レポートは16分前の08:55(UTC)に作成
西の風 6kt
気温 13°C
湿度 67%
気圧 1027 hPa
視程: 16.1km
晴天

METAR: KMQS 180855Z AUTO 27006KT 10SM CLR 13/07 A3034 RMK AO2

時間: 05:11 (09:11 UTC)


TAF: 見つかりません

4,000以上の空港の気象観測と天気予報(METAR報とTAF報)

利用可能な観測所は地図上に黄色い丸と赤い丸で示す。

丸の上にカーソルを重ねると観測所名を参照できる。

次にクリックすると気象観測と天気予報を参照できる。

マップの切り替え:黒色「×」印の緑ボタンをクリックして拡大、「-」印の緑ボタンをクリックして縮小、緑色の三角印をクリックして隣りの地図に切り替え


METAR-TAF: